sensor_id;sensor_type;location;lat;lon;timestamp;P1;durP1;ratioP1;P2;durP2;ratioP2
50429;SDS011;36359;41.556;-8.418;2023-06-22T00:00:48;8.13;;;5.10;;
50429;SDS011;36359;41.556;-8.418;2023-06-22T00:03:14;9.50;;;4.82;;
50429;SDS011;36359;41.556;-8.418;2023-06-22T00:05:40;10.13;;;4.55;;
50429;SDS011;36359;41.556;-8.418;2023-06-22T00:08:05;9.75;;;4.72;;
50429;SDS011;36359;41.556;-8.418;2023-06-22T00:10:31;9.55;;;4.72;;
50429;SDS011;36359;41.556;-8.418;2023-06-22T00:12:57;10.05;;;4.82;;
50429;SDS011;36359;41.556;-8.418;2023-06-22T00:15:23;9.48;;;5.18;;
50429;SDS011;36359;41.556;-8.418;2023-06-22T00:17:49;10.52;;;5.18;;
50429;SDS011;36359;41.556;-8.418;2023-06-22T00:20:15;8.55;;;4.70;;
50429;SDS011;36359;41.556;-8.418;2023-06-22T00:22:43;5.95;;;4.05;;
50429;SDS011;36359;41.556;-8.418;2023-06-22T00:25:09;10.30;;;5.38;;
50429;SDS011;36359;41.556;-8.418;2023-06-22T00:27:36;9.52;;;4.95;;
50429;SDS011;36359;41.556;-8.418;2023-06-22T00:30:02;5.90;;;4.03;;
50429;SDS011;36359;41.556;-8.418;2023-06-22T00:32:28;7.75;;;4.65;;
50429;SDS011;36359;41.556;-8.418;2023-06-22T00:34:54;9.85;;;5.72;;
50429;SDS011;36359;41.556;-8.418;2023-06-22T00:37:20;9.15;;;5.55;;
50429;SDS011;36359;41.556;-8.418;2023-06-22T00:39:52;9.93;;;5.68;;
50429;SDS011;36359;41.556;-8.418;2023-06-22T00:42:22;9.85;;;5.47;;
50429;SDS011;36359;41.556;-8.418;2023-06-22T00:44:48;9.82;;;5.25;;
50429;SDS011;36359;41.556;-8.418;2023-06-22T00:47:14;11.77;;;6.13;;
50429;SDS011;36359;41.556;-8.418;2023-06-22T00:49:42;7.10;;;5.28;;
50429;SDS011;36359;41.556;-8.418;2023-06-22T00:52:08;8.82;;;5.40;;
50429;SDS011;36359;41.556;-8.418;2023-06-22T00:57:14;9.23;;;5.47;;
50429;SDS011;36359;41.556;-8.418;2023-06-22T00:59:44;7.65;;;5.20;;
50429;SDS011;36359;41.556;-8.418;2023-06-22T01:02:11;11.47;;;6.23;;
50429;SDS011;36359;41.556;-8.418;2023-06-22T01:04:37;11.00;;;5.95;;
50429;SDS011;36359;41.556;-8.418;2023-06-22T01:07:11;11.25;;;5.40;;
50429;SDS011;36359;41.556;-8.418;2023-06-22T01:10:14;8.82;;;6.10;;
50429;SDS011;36359;41.556;-8.418;2023-06-22T01:12:52;11.73;;;6.18;;
50429;SDS011;36359;41.556;-8.418;2023-06-22T01:15:21;9.88;;;5.63;;
50429;SDS011;36359;41.556;-8.418;2023-06-22T01:17:53;11.98;;;6.10;;
50429;SDS011;36359;41.556;-8.418;2023-06-22T01:20:21;7.85;;;5.18;;
50429;SDS011;36359;41.556;-8.418;2023-06-22T01:25:31;8.38;;;6.00;;
50429;SDS011;36359;41.556;-8.418;2023-06-22T01:30:48;11.13;;;5.70;;
50429;SDS011;36359;41.556;-8.418;2023-06-22T01:33:26;8.15;;;5.43;;
50429;SDS011;36359;41.556;-8.418;2023-06-22T01:35:52;9.07;;;5.50;;
50429;SDS011;36359;41.556;-8.418;2023-06-22T01:38:18;14.02;;;6.35;;
50429;SDS011;36359;41.556;-8.418;2023-06-22T01:40:45;8.32;;;4.38;;
50429;SDS011;36359;41.556;-8.418;2023-06-22T01:43:11;9.88;;;5.57;;
50429;SDS011;36359;41.556;-8.418;2023-06-22T01:45:37;7.40;;;5.38;;
50429;SDS011;36359;41.556;-8.418;2023-06-22T01:48:03;9.98;;;5.53;;
50429;SDS011;36359;41.556;-8.418;2023-06-22T01:50:30;9.70;;;5.60;;
50429;SDS011;36359;41.556;-8.418;2023-06-22T01:52:55;11.27;;;6.30;;
50429;SDS011;36359;41.556;-8.418;2023-06-22T01:55:21;9.90;;;5.72;;
50429;SDS011;36359;41.556;-8.418;2023-06-22T01:57:48;12.82;;;5.93;;
50429;SDS011;36359;41.556;-8.418;2023-06-22T02:00:18;11.45;;;6.00;;
50429;SDS011;36359;41.556;-8.418;2023-06-22T02:02:53;10.57;;;5.57;;
50429;SDS011;36359;41.556;-8.418;2023-06-22T02:05:38;12.63;;;5.88;;
50429;SDS011;36359;41.556;-8.418;2023-06-22T02:08:12;9.85;;;6.10;;
50429;SDS011;36359;41.556;-8.418;2023-06-22T02:10:44;9.70;;;5.72;;
50429;SDS011;36359;41.556;-8.418;2023-06-22T02:13:13;10.98;;;5.72;;
50429;SDS011;36359;41.556;-8.418;2023-06-22T02:15:39;11.40;;;5.18;;
50429;SDS011;36359;41.556;-8.418;2023-06-22T02:18:06;7.30;;;5.38;;
50429;SDS011;36359;41.556;-8.418;2023-06-22T02:20:32;12.02;;;6.53;;
50429;SDS011;36359;41.556;-8.418;2023-06-22T02:22:58;7.32;;;4.70;;
50429;SDS011;36359;41.556;-8.418;2023-06-22T02:25:23;9.35;;;5.53;;
50429;SDS011;36359;41.556;-8.418;2023-06-22T02:27:49;11.82;;;5.82;;
50429;SDS011;36359;41.556;-8.418;2023-06-22T02:30:16;12.35;;;6.10;;
50429;SDS011;36359;41.556;-8.418;2023-06-22T02:32:42;9.82;;;5.72;;
50429;SDS011;36359;41.556;-8.418;2023-06-22T02:35:08;11.25;;;6.60;;
50429;SDS011;36359;41.556;-8.418;2023-06-22T02:37:35;10.25;;;6.25;;
50429;SDS011;36359;41.556;-8.418;2023-06-22T02:40:09;12.40;;;6.82;;
50429;SDS011;36359;41.556;-8.418;2023-06-22T02:42:36;10.13;;;6.28;;
50429;SDS011;36359;41.556;-8.418;2023-06-22T02:45:02;8.60;;;5.97;;
50429;SDS011;36359;41.556;-8.418;2023-06-22T02:47:28;10.23;;;6.63;;
50429;SDS011;36359;41.556;-8.418;2023-06-22T02:49:54;10.82;;;6.53;;
50429;SDS011;36359;41.556;-8.418;2023-06-22T02:52:22;8.65;;;6.30;;
50429;SDS011;36359;41.556;-8.418;2023-06-22T02:54:47;8.63;;;6.35;;
50429;SDS011;36359;41.556;-8.418;2023-06-22T02:57:14;9.18;;;5.75;;
50429;SDS011;36359;41.556;-8.418;2023-06-22T02:59:41;10.45;;;6.22;;
50429;SDS011;36359;41.556;-8.418;2023-06-22T03:02:09;10.40;;;6.18;;
50429;SDS011;36359;41.556;-8.418;2023-06-22T03:04:35;10.73;;;6.40;;
50429;SDS011;36359;41.556;-8.418;2023-06-22T03:07:01;10.13;;;6.10;;
50429;SDS011;36359;41.556;-8.418;2023-06-22T03:09:29;12.15;;;6.18;;
50429;SDS011;36359;41.556;-8.418;2023-06-22T03:11:56;11.77;;;5.82;;
50429;SDS011;36359;41.556;-8.418;2023-06-22T03:14:25;11.60;;;6.10;;
50429;SDS011;36359;41.556;-8.418;2023-06-22T03:16:52;12.55;;;6.30;;
50429;SDS011;36359;41.556;-8.418;2023-06-22T03:19:19;11.00;;;6.55;;
50429;SDS011;36359;41.556;-8.418;2023-06-22T03:21:47;9.10;;;6.13;;
50429;SDS011;36359;41.556;-8.418;2023-06-22T03:24:13;8.48;;;5.57;;
50429;SDS011;36359;41.556;-8.418;2023-06-22T03:26:38;10.50;;;6.65;;
50429;SDS011;36359;41.556;-8.418;2023-06-22T03:29:04;10.43;;;5.97;;
50429;SDS011;36359;41.556;-8.418;2023-06-22T03:31:30;10.75;;;6.50;;
50429;SDS011;36359;41.556;-8.418;2023-06-22T03:33:56;11.73;;;6.72;;
50429;SDS011;36359;41.556;-8.418;2023-06-22T03:36:22;13.20;;;6.80;;
50429;SDS011;36359;41.556;-8.418;2023-06-22T03:38:49;11.50;;;7.38;;
50429;SDS011;36359;41.556;-8.418;2023-06-22T03:41:15;13.02;;;7.68;;
50429;SDS011;36359;41.556;-8.418;2023-06-22T03:43:42;12.18;;;7.93;;
50429;SDS011;36359;41.556;-8.418;2023-06-22T03:46:08;9.77;;;7.03;;
50429;SDS011;36359;41.556;-8.418;2023-06-22T03:48:34;12.73;;;7.85;;
50429;SDS011;36359;41.556;-8.418;2023-06-22T03:51:00;10.43;;;7.65;;
50429;SDS011;36359;41.556;-8.418;2023-06-22T03:53:26;9.45;;;7.85;;
50429;SDS011;36359;41.556;-8.418;2023-06-22T03:55:52;10.35;;;6.93;;
50429;SDS011;36359;41.556;-8.418;2023-06-22T03:58:18;11.23;;;7.13;;
50429;SDS011;36359;41.556;-8.418;2023-06-22T04:00:49;11.45;;;7.70;;
50429;SDS011;36359;41.556;-8.418;2023-06-22T04:03:16;10.07;;;7.45;;
50429;SDS011;36359;41.556;-8.418;2023-06-22T04:05:43;11.15;;;7.85;;
50429;SDS011;36359;41.556;-8.418;2023-06-22T04:08:10;11.20;;;7.95;;
50429;SDS011;36359;41.556;-8.418;2023-06-22T04:10:37;15.35;;;8.07;;
50429;SDS011;36359;41.556;-8.418;2023-06-22T04:13:03;14.27;;;7.93;;
50429;SDS011;36359;41.556;-8.418;2023-06-22T04:15:29;10.23;;;7.70;;
50429;SDS011;36359;41.556;-8.418;2023-06-22T04:17:54;12.85;;;7.95;;
50429;SDS011;36359;41.556;-8.418;2023-06-22T04:20:21;15.02;;;9.68;;
50429;SDS011;36359;41.556;-8.418;2023-06-22T04:22:47;15.80;;;9.70;;
50429;SDS011;36359;41.556;-8.418;2023-06-22T04:25:13;13.13;;;9.77;;
50429;SDS011;36359;41.556;-8.418;2023-06-22T04:27:39;17.02;;;9.82;;
50429;SDS011;36359;41.556;-8.418;2023-06-22T04:30:08;12.75;;;8.48;;
50429;SDS011;36359;41.556;-8.418;2023-06-22T04:32:34;11.80;;;8.52;;
50429;SDS011;36359;41.556;-8.418;2023-06-22T04:35:04;16.95;;;9.23;;
50429;SDS011;36359;41.556;-8.418;2023-06-22T04:37:31;14.90;;;8.85;;
50429;SDS011;36359;41.556;-8.418;2023-06-22T04:39:57;10.07;;;6.72;;
50429;SDS011;36359;41.556;-8.418;2023-06-22T04:42:25;13.45;;;8.70;;
50429;SDS011;36359;41.556;-8.418;2023-06-22T04:44:51;13.55;;;8.85;;
50429;SDS011;36359;41.556;-8.418;2023-06-22T04:47:17;11.07;;;8.73;;
50429;SDS011;36359;41.556;-8.418;2023-06-22T04:49:42;12.65;;;8.45;;
50429;SDS011;36359;41.556;-8.418;2023-06-22T04:52:09;13.48;;;8.60;;
50429;SDS011;36359;41.556;-8.418;2023-06-22T04:54:37;11.00;;;8.88;;
50429;SDS011;36359;41.556;-8.418;2023-06-22T04:57:05;14.20;;;9.02;;
50429;SDS011;36359;41.556;-8.418;2023-06-22T04:59:35;15.63;;;8.45;;
50429;SDS011;36359;41.556;-8.418;2023-06-22T05:02:04;12.60;;;7.90;;
50429;SDS011;36359;41.556;-8.418;2023-06-22T05:04:34;9.95;;;6.65;;
50429;SDS011;36359;41.556;-8.418;2023-06-22T05:07:04;7.53;;;5.67;;
50429;SDS011;36359;41.556;-8.418;2023-06-22T05:09:30;8.52;;;7.00;;
50429;SDS011;36359;41.556;-8.418;2023-06-22T05:11:55;9.57;;;6.50;;
50429;SDS011;36359;41.556;-8.418;2023-06-22T05:14:27;10.50;;;6.70;;
50429;SDS011;36359;41.556;-8.418;2023-06-22T05:16:53;12.43;;;7.95;;
50429;SDS011;36359;41.556;-8.418;2023-06-22T05:19:19;8.40;;;6.43;;
50429;SDS011;36359;41.556;-8.418;2023-06-22T05:21:44;10.90;;;6.53;;
50429;SDS011;36359;41.556;-8.418;2023-06-22T05:24:10;10.02;;;6.97;;
50429;SDS011;36359;41.556;-8.418;2023-06-22T05:26:36;11.38;;;7.63;;
50429;SDS011;36359;41.556;-8.418;2023-06-22T05:29:02;11.20;;;7.03;;
50429;SDS011;36359;41.556;-8.418;2023-06-22T05:31:29;12.75;;;7.28;;
50429;SDS011;36359;41.556;-8.418;2023-06-22T05:33:55;11.88;;;7.50;;
50429;SDS011;36359;41.556;-8.418;2023-06-22T05:36:21;11.90;;;7.68;;
50429;SDS011;36359;41.556;-8.418;2023-06-22T05:38:50;10.35;;;6.32;;
50429;SDS011;36359;41.556;-8.418;2023-06-22T05:41:17;14.45;;;7.55;;
50429;SDS011;36359;41.556;-8.418;2023-06-22T05:43:43;15.18;;;8.25;;
50429;SDS011;36359;41.556;-8.418;2023-06-22T05:46:09;15.57;;;7.65;;
50429;SDS011;36359;41.556;-8.418;2023-06-22T05:48:34;12.13;;;6.93;;
50429;SDS011;36359;41.556;-8.418;2023-06-22T05:51:00;14.25;;;8.10;;
50429;SDS011;36359;41.556;-8.418;2023-06-22T05:53:26;14.90;;;8.35;;
50429;SDS011;36359;41.556;-8.418;2023-06-22T05:55:52;11.55;;;8.57;;
50429;SDS011;36359;41.556;-8.418;2023-06-22T05:58:17;13.57;;;8.27;;
50429;SDS011;36359;41.556;-8.418;2023-06-22T06:00:43;9.75;;;6.68;;
50429;SDS011;36359;41.556;-8.418;2023-06-22T06:03:09;12.50;;;7.78;;
50429;SDS011;36359;41.556;-8.418;2023-06-22T06:05:36;13.13;;;8.10;;
50429;SDS011;36359;41.556;-8.418;2023-06-22T06:08:03;15.05;;;8.35;;
50429;SDS011;36359;41.556;-8.418;2023-06-22T06:10:31;13.05;;;8.55;;
50429;SDS011;36359;41.556;-8.418;2023-06-22T06:12:57;15.60;;;9.20;;
50429;SDS011;36359;41.556;-8.418;2023-06-22T06:15:24;16.48;;;9.52;;
50429;SDS011;36359;41.556;-8.418;2023-06-22T06:17:50;13.45;;;8.88;;
50429;SDS011;36359;41.556;-8.418;2023-06-22T06:20:21;10.90;;;7.25;;
50429;SDS011;36359;41.556;-8.418;2023-06-22T06:22:48;10.65;;;6.85;;
50429;SDS011;36359;41.556;-8.418;2023-06-22T06:25:15;9.52;;;6.13;;
50429;SDS011;36359;41.556;-8.418;2023-06-22T06:27:45;10.30;;;6.07;;
50429;SDS011;36359;41.556;-8.418;2023-06-22T06:30:12;10.05;;;5.63;;
50429;SDS011;36359;41.556;-8.418;2023-06-22T06:32:39;9.38;;;5.45;;
50429;SDS011;36359;41.556;-8.418;2023-06-22T06:35:05;8.82;;;6.03;;
50429;SDS011;36359;41.556;-8.418;2023-06-22T06:37:34;8.13;;;5.88;;
50429;SDS011;36359;41.556;-8.418;2023-06-22T06:40:04;7.63;;;5.38;;
50429;SDS011;36359;41.556;-8.418;2023-06-22T06:42:33;6.65;;;4.78;;
50429;SDS011;36359;41.556;-8.418;2023-06-22T06:44:59;6.13;;;4.40;;
50429;SDS011;36359;41.556;-8.418;2023-06-22T06:47:24;9.73;;;5.40;;
50429;SDS011;36359;41.556;-8.418;2023-06-22T06:49:50;9.25;;;5.07;;
50429;SDS011;36359;41.556;-8.418;2023-06-22T06:52:16;7.57;;;4.72;;
50429;SDS011;36359;41.556;-8.418;2023-06-22T06:54:41;8.80;;;4.90;;
50429;SDS011;36359;41.556;-8.418;2023-06-22T06:57:07;9.40;;;5.47;;
50429;SDS011;36359;41.556;-8.418;2023-06-22T06:59:36;7.90;;;5.20;;
50429;SDS011;36359;41.556;-8.418;2023-06-22T07:02:01;13.35;;;5.40;;
50429;SDS011;36359;41.556;-8.418;2023-06-22T07:04:27;9.20;;;4.88;;
50429;SDS011;36359;41.556;-8.418;2023-06-22T07:06:53;6.15;;;4.50;;
50429;SDS011;36359;41.556;-8.418;2023-06-22T07:09:18;10.70;;;5.60;;
50429;SDS011;36359;41.556;-8.418;2023-06-22T07:11:44;10.07;;;5.50;;
50429;SDS011;36359;41.556;-8.418;2023-06-22T07:14:10;13.27;;;5.60;;
50429;SDS011;36359;41.556;-8.418;2023-06-22T07:16:35;16.92;;;6.18;;
50429;SDS011;36359;41.556;-8.418;2023-06-22T07:19:02;11.27;;;5.45;;
50429;SDS011;36359;41.556;-8.418;2023-06-22T07:21:28;8.07;;;5.15;;
50429;SDS011;36359;41.556;-8.418;2023-06-22T07:23:53;19.52;;;6.78;;
50429;SDS011;36359;41.556;-8.418;2023-06-22T07:26:20;9.55;;;5.22;;
50429;SDS011;36359;41.556;-8.418;2023-06-22T07:28:45;17.08;;;6.70;;
50429;SDS011;36359;41.556;-8.418;2023-06-22T07:31:11;9.10;;;5.28;;
50429;SDS011;36359;41.556;-8.418;2023-06-22T07:33:37;8.25;;;4.97;;
50429;SDS011;36359;41.556;-8.418;2023-06-22T07:36:02;12.27;;;6.78;;
50429;SDS011;36359;41.556;-8.418;2023-06-22T07:38:33;12.30;;;6.70;;
50429;SDS011;36359;41.556;-8.418;2023-06-22T07:41:00;9.10;;;5.70;;
50429;SDS011;36359;41.556;-8.418;2023-06-22T07:43:26;12.82;;;7.15;;
50429;SDS011;36359;41.556;-8.418;2023-06-22T07:45:52;9.52;;;5.63;;
50429;SDS011;36359;41.556;-8.418;2023-06-22T07:48:21;10.70;;;6.78;;
50429;SDS011;36359;41.556;-8.418;2023-06-22T07:50:47;8.27;;;5.25;;
50429;SDS011;36359;41.556;-8.418;2023-06-22T07:53:13;15.85;;;7.20;;
50429;SDS011;36359;41.556;-8.418;2023-06-22T07:55:39;17.75;;;6.93;;
50429;SDS011;36359;41.556;-8.418;2023-06-22T07:58:05;18.02;;;7.10;;
50429;SDS011;36359;41.556;-8.418;2023-06-22T08:00:30;14.93;;;7.03;;
50429;SDS011;36359;41.556;-8.418;2023-06-22T08:02:58;15.80;;;7.38;;
50429;SDS011;36359;41.556;-8.418;2023-06-22T08:05:23;10.43;;;6.07;;
50429;SDS011;36359;41.556;-8.418;2023-06-22T08:07:49;11.43;;;6.45;;
50429;SDS011;36359;41.556;-8.418;2023-06-22T08:10:15;7.68;;;4.97;;
50429;SDS011;36359;41.556;-8.418;2023-06-22T08:12:41;15.32;;;6.95;;
50429;SDS011;36359;41.556;-8.418;2023-06-22T08:15:07;7.25;;;4.25;;
50429;SDS011;36359;41.556;-8.418;2023-06-22T08:17:33;7.20;;;4.13;;
50429;SDS011;36359;41.556;-8.418;2023-06-22T08:19:59;13.05;;;6.10;;
50429;SDS011;36359;41.556;-8.418;2023-06-22T08:22:25;13.20;;;7.78;;
50429;SDS011;36359;41.556;-8.418;2023-06-22T08:24:51;10.57;;;5.85;;
50429;SDS011;36359;41.556;-8.418;2023-06-22T08:27:16;13.18;;;6.75;;
50429;SDS011;36359;41.556;-8.418;2023-06-22T08:29:46;14.63;;;7.97;;
50429;SDS011;36359;41.556;-8.418;2023-06-22T08:32:12;15.05;;;6.53;;
50429;SDS011;36359;41.556;-8.418;2023-06-22T08:34:38;14.52;;;8.38;;
50429;SDS011;36359;41.556;-8.418;2023-06-22T08:37:07;13.23;;;7.43;;
50429;SDS011;36359;41.556;-8.418;2023-06-22T08:39:33;9.13;;;5.32;;
50429;SDS011;36359;41.556;-8.418;2023-06-22T08:41:59;11.70;;;7.40;;
50429;SDS011;36359;41.556;-8.418;2023-06-22T08:44:25;12.20;;;6.85;;
50429;SDS011;36359;41.556;-8.418;2023-06-22T08:46:51;7.90;;;5.22;;
50429;SDS011;36359;41.556;-8.418;2023-06-22T08:49:16;8.70;;;5.85;;
50429;SDS011;36359;41.556;-8.418;2023-06-22T08:51:42;13.15;;;8.70;;
50429;SDS011;36359;41.556;-8.418;2023-06-22T08:54:10;8.60;;;5.35;;
50429;SDS011;36359;41.556;-8.418;2023-06-22T08:56:35;10.20;;;8.45;;
50429;SDS011;36359;41.556;-8.418;2023-06-22T08:59:01;11.63;;;7.47;;
50429;SDS011;36359;41.556;-8.418;2023-06-22T09:03:56;15.40;;;8.73;;
50429;SDS011;36359;41.556;-8.418;2023-06-22T09:06:24;11.68;;;7.78;;
50429;SDS011;36359;41.556;-8.418;2023-06-22T09:08:49;16.05;;;9.68;;
50429;SDS011;36359;41.556;-8.418;2023-06-22T09:11:15;14.38;;;8.23;;
50429;SDS011;36359;41.556;-8.418;2023-06-22T09:13:41;14.45;;;9.77;;
50429;SDS011;36359;41.556;-8.418;2023-06-22T09:16:07;13.23;;;7.18;;
50429;SDS011;36359;41.556;-8.418;2023-06-22T09:18:33;15.60;;;9.95;;
50429;SDS011;36359;41.556;-8.418;2023-06-22T09:20:59;13.85;;;7.60;;
50429;SDS011;36359;41.556;-8.418;2023-06-22T09:23:25;11.25;;;8.30;;
50429;SDS011;36359;41.556;-8.418;2023-06-22T09:25:51;15.15;;;9.68;;
50429;SDS011;36359;41.556;-8.418;2023-06-22T09:28:17;16.27;;;10.60;;
50429;SDS011;36359;41.556;-8.418;2023-06-22T09:30:43;13.40;;;9.55;;
50429;SDS011;36359;41.556;-8.418;2023-06-22T09:33:12;14.45;;;9.23;;
50429;SDS011;36359;41.556;-8.418;2023-06-22T09:35:38;15.52;;;8.93;;
50429;SDS011;36359;41.556;-8.418;2023-06-22T09:38:03;9.25;;;5.78;;
50429;SDS011;36359;41.556;-8.418;2023-06-22T09:40:29;12.68;;;7.97;;
50429;SDS011;36359;41.556;-8.418;2023-06-22T09:42:57;13.90;;;7.72;;
50429;SDS011;36359;41.556;-8.418;2023-06-22T09:45:23;9.45;;;5.18;;
50429;SDS011;36359;41.556;-8.418;2023-06-22T09:47:49;14.60;;;9.30;;
50429;SDS011;36359;41.556;-8.418;2023-06-22T09:50:14;13.95;;;7.88;;
50429;SDS011;36359;41.556;-8.418;2023-06-22T09:52:40;15.32;;;8.85;;
50429;SDS011;36359;41.556;-8.418;2023-06-22T09:55:09;11.15;;;6.28;;
50429;SDS011;36359;41.556;-8.418;2023-06-22T09:57:35;9.90;;;6.72;;
50429;SDS011;36359;41.556;-8.418;2023-06-22T10:00:01;8.15;;;5.32;;
50429;SDS011;36359;41.556;-8.418;2023-06-22T10:02:29;13.95;;;9.45;;
50429;SDS011;36359;41.556;-8.418;2023-06-22T10:04:55;14.20;;;9.73;;
50429;SDS011;36359;41.556;-8.418;2023-06-22T10:07:21;9.52;;;5.57;;
50429;SDS011;36359;41.556;-8.418;2023-06-22T10:09:46;15.75;;;10.13;;
50429;SDS011;36359;41.556;-8.418;2023-06-22T10:12:12;13.38;;;8.60;;
50429;SDS011;36359;41.556;-8.418;2023-06-22T10:14:38;8.80;;;5.45;;
50429;SDS011;36359;41.556;-8.418;2023-06-22T10:17:03;12.10;;;7.90;;
50429;SDS011;36359;41.556;-8.418;2023-06-22T10:19:32;12.95;;;7.72;;
50429;SDS011;36359;41.556;-8.418;2023-06-22T10:21:58;10.05;;;7.20;;
50429;SDS011;36359;41.556;-8.418;2023-06-22T10:24:23;9.32;;;6.20;;
50429;SDS011;36359;41.556;-8.418;2023-06-22T10:26:49;11.43;;;7.07;;
50429;SDS011;36359;41.556;-8.418;2023-06-22T10:29:15;9.38;;;6.18;;
50429;SDS011;36359;41.556;-8.418;2023-06-22T10:31:41;11.88;;;7.28;;
50429;SDS011;36359;41.556;-8.418;2023-06-22T10:34:07;10.35;;;7.65;;
50429;SDS011;36359;41.556;-8.418;2023-06-22T10:36:32;9.63;;;7.03;;
50429;SDS011;36359;41.556;-8.418;2023-06-22T10:38:58;10.60;;;5.80;;
50429;SDS011;36359;41.556;-8.418;2023-06-22T10:41:24;9.13;;;6.28;;
50429;SDS011;36359;41.556;-8.418;2023-06-22T10:43:50;10.90;;;6.43;;
50429;SDS011;36359;41.556;-8.418;2023-06-22T10:46:16;11.10;;;5.45;;
50429;SDS011;36359;41.556;-8.418;2023-06-22T10:48:41;6.70;;;4.63;;
50429;SDS011;36359;41.556;-8.418;2023-06-22T10:51:07;8.00;;;5.50;;
50429;SDS011;36359;41.556;-8.418;2023-06-22T10:53:33;10.98;;;5.65;;
50429;SDS011;36359;41.556;-8.418;2023-06-22T10:55:58;6.43;;;4.65;;
50429;SDS011;36359;41.556;-8.418;2023-06-22T10:58:24;9.20;;;5.50;;
50429;SDS011;36359;41.556;-8.418;2023-06-22T11:00:50;7.15;;;5.00;;
50429;SDS011;36359;41.556;-8.418;2023-06-22T11:03:16;7.63;;;4.85;;
50429;SDS011;36359;41.556;-8.418;2023-06-22T11:05:41;8.05;;;5.53;;
50429;SDS011;36359;41.556;-8.418;2023-06-22T11:08:07;6.95;;;4.40;;
50429;SDS011;36359;41.556;-8.418;2023-06-22T11:10:33;6.78;;;5.07;;
50429;SDS011;36359;41.556;-8.418;2023-06-22T11:12:59;5.43;;;4.43;;
50429;SDS011;36359;41.556;-8.418;2023-06-22T11:15:24;7.30;;;4.97;;
50429;SDS011;36359;41.556;-8.418;2023-06-22T11:17:50;8.82;;;4.82;;
50429;SDS011;36359;41.556;-8.418;2023-06-22T11:20:16;8.20;;;5.63;;
50429;SDS011;36359;41.556;-8.418;2023-06-22T11:22:42;7.25;;;4.18;;
50429;SDS011;36359;41.556;-8.418;2023-06-22T11:25:08;7.57;;;4.75;;
50429;SDS011;36359;41.556;-8.418;2023-06-22T11:27:37;7.63;;;5.03;;
50429;SDS011;36359;41.556;-8.418;2023-06-22T11:30:03;7.00;;;4.22;;
50429;SDS011;36359;41.556;-8.418;2023-06-22T11:32:29;4.80;;;4.20;;
50429;SDS011;36359;41.556;-8.418;2023-06-22T11:34:55;7.63;;;6.25;;
50429;SDS011;36359;41.556;-8.418;2023-06-22T11:37:21;8.38;;;5.93;;
50429;SDS011;36359;41.556;-8.418;2023-06-22T11:39:46;8.90;;;5.65;;
50429;SDS011;36359;41.556;-8.418;2023-06-22T11:42:12;8.50;;;5.40;;
50429;SDS011;36359;41.556;-8.418;2023-06-22T11:44:37;12.10;;;6.07;;
50429;SDS011;36359;41.556;-8.418;2023-06-22T11:47:03;8.60;;;5.72;;
50429;SDS011;36359;41.556;-8.418;2023-06-22T11:49:30;6.30;;;4.57;;
50429;SDS011;36359;41.556;-8.418;2023-06-22T11:51:56;10.73;;;7.05;;
50429;SDS011;36359;41.556;-8.418;2023-06-22T11:54:21;10.48;;;6.25;;
50429;SDS011;36359;41.556;-8.418;2023-06-22T11:56:47;6.95;;;4.88;;
50429;SDS011;36359;41.556;-8.418;2023-06-22T11:59:13;8.95;;;5.68;;
50429;SDS011;36359;41.556;-8.418;2023-06-22T12:01:39;8.73;;;5.35;;
50429;SDS011;36359;41.556;-8.418;2023-06-22T12:04:04;7.90;;;5.72;;
50429;SDS011;36359;41.556;-8.418;2023-06-22T12:06:31;6.53;;;4.95;;
50429;SDS011;36359;41.556;-8.418;2023-06-22T12:08:58;8.20;;;5.10;;
50429;SDS011;36359;41.556;-8.418;2023-06-22T12:11:24;8.15;;;5.20;;
50429;SDS011;36359;41.556;-8.418;2023-06-22T12:13:49;9.30;;;6.82;;
50429;SDS011;36359;41.556;-8.418;2023-06-22T12:16:15;9.75;;;6.05;;
50429;SDS011;36359;41.556;-8.418;2023-06-22T12:18:41;10.27;;;6.38;;
50429;SDS011;36359;41.556;-8.418;2023-06-22T12:21:07;8.65;;;6.15;;
50429;SDS011;36359;41.556;-8.418;2023-06-22T12:23:32;8.50;;;5.30;;
50429;SDS011;36359;41.556;-8.418;2023-06-22T12:25:58;8.55;;;6.50;;
50429;SDS011;36359;41.556;-8.418;2023-06-22T12:28:25;6.97;;;5.35;;
50429;SDS011;36359;41.556;-8.418;2023-06-22T12:30:50;11.30;;;6.53;;
50429;SDS011;36359;41.556;-8.418;2023-06-22T12:33:16;10.57;;;5.85;;
50429;SDS011;36359;41.556;-8.418;2023-06-22T12:35:43;9.52;;;6.70;;
50429;SDS011;36359;41.556;-8.418;2023-06-22T12:38:10;9.43;;;6.93;;
50429;SDS011;36359;41.556;-8.418;2023-06-22T12:40:36;10.25;;;7.68;;
50429;SDS011;36359;41.556;-8.418;2023-06-22T12:43:02;10.35;;;6.05;;
50429;SDS011;36359;41.556;-8.418;2023-06-22T12:45:27;11.98;;;6.65;;
50429;SDS011;36359;41.556;-8.418;2023-06-22T12:47:57;6.85;;;5.88;;
50429;SDS011;36359;41.556;-8.418;2023-06-22T12:50:23;11.52;;;7.15;;
50429;SDS011;36359;41.556;-8.418;2023-06-22T12:52:48;10.05;;;6.93;;
50429;SDS011;36359;41.556;-8.418;2023-06-22T12:55:14;13.98;;;9.32;;
50429;SDS011;36359;41.556;-8.418;2023-06-22T12:57:40;12.07;;;8.38;;
50429;SDS011;36359;41.556;-8.418;2023-06-22T13:00:06;11.60;;;9.30;;
50429;SDS011;36359;41.556;-8.418;2023-06-22T13:02:33;10.35;;;6.82;;
50429;SDS011;36359;41.556;-8.418;2023-06-22T13:04:59;9.38;;;6.13;;
50429;SDS011;36359;41.556;-8.418;2023-06-22T13:07:25;10.45;;;6.90;;
50429;SDS011;36359;41.556;-8.418;2023-06-22T13:09:51;9.13;;;6.38;;
50429;SDS011;36359;41.556;-8.418;2023-06-22T13:12:17;9.40;;;7.60;;
50429;SDS011;36359;41.556;-8.418;2023-06-22T13:14:43;16.70;;;9.25;;
50429;SDS011;36359;41.556;-8.418;2023-06-22T13:17:09;9.95;;;6.82;;
50429;SDS011;36359;41.556;-8.418;2023-06-22T13:19:34;9.15;;;7.47;;
50429;SDS011;36359;41.556;-8.418;2023-06-22T13:22:00;13.85;;;8.27;;
50429;SDS011;36359;41.556;-8.418;2023-06-22T13:24:27;11.02;;;8.10;;
50429;SDS011;36359;41.556;-8.418;2023-06-22T13:29:19;9.85;;;6.80;;
50429;SDS011;36359;41.556;-8.418;2023-06-22T13:31:47;11.15;;;8.18;;
50429;SDS011;36359;41.556;-8.418;2023-06-22T13:34:13;7.70;;;6.30;;
50429;SDS011;36359;41.556;-8.418;2023-06-22T13:36:38;11.35;;;7.07;;
50429;SDS011;36359;41.556;-8.418;2023-06-22T13:39:04;10.52;;;7.85;;
50429;SDS011;36359;41.556;-8.418;2023-06-22T13:41:30;10.73;;;6.85;;
50429;SDS011;36359;41.556;-8.418;2023-06-22T13:43:55;10.32;;;7.07;;
50429;SDS011;36359;41.556;-8.418;2023-06-22T13:46:21;12.45;;;6.85;;
50429;SDS011;36359;41.556;-8.418;2023-06-22T13:48:47;7.88;;;5.95;;
50429;SDS011;36359;41.556;-8.418;2023-06-22T13:51:13;11.32;;;7.28;;
50429;SDS011;36359;41.556;-8.418;2023-06-22T13:53:38;8.60;;;6.05;;
50429;SDS011;36359;41.556;-8.418;2023-06-22T13:56:04;11.00;;;7.03;;
50429;SDS011;36359;41.556;-8.418;2023-06-22T13:58:29;12.50;;;7.90;;
50429;SDS011;36359;41.556;-8.418;2023-06-22T14:00:55;7.95;;;6.00;;
50429;SDS011;36359;41.556;-8.418;2023-06-22T14:03:21;10.27;;;6.95;;
50429;SDS011;36359;41.556;-8.418;2023-06-22T14:05:46;7.82;;;6.97;;
50429;SDS011;36359;41.556;-8.418;2023-06-22T14:08:13;7.45;;;6.15;;
50429;SDS011;36359;41.556;-8.418;2023-06-22T14:10:40;14.52;;;6.88;;
50429;SDS011;36359;41.556;-8.418;2023-06-22T14:13:05;10.77;;;6.70;;
50429;SDS011;36359;41.556;-8.418;2023-06-22T14:15:31;11.30;;;6.43;;
50429;SDS011;36359;41.556;-8.418;2023-06-22T14:17:57;12.20;;;6.78;;
50429;SDS011;36359;41.556;-8.418;2023-06-22T14:20:23;10.75;;;7.10;;
50429;SDS011;36359;41.556;-8.418;2023-06-22T14:22:48;11.35;;;7.45;;
50429;SDS011;36359;41.556;-8.418;2023-06-22T14:25:14;11.00;;;7.40;;
50429;SDS011;36359;41.556;-8.418;2023-06-22T14:27:40;12.35;;;7.55;;
50429;SDS011;36359;41.556;-8.418;2023-06-22T14:30:06;11.57;;;6.78;;
50429;SDS011;36359;41.556;-8.418;2023-06-22T14:32:32;9.75;;;6.45;;
50429;SDS011;36359;41.556;-8.418;2023-06-22T14:34:57;8.68;;;6.35;;